Time;durP1;ratioP1;P1;durP2;ratioP2;P2;SDS_P1;SDS_P2;PMS_P1;PMS_P2;Temp;Humidity;BMP_temperature;BMP_pressure;BME280_temperature;BME280_humidity;BME280_pressure;Samples;Min_cycle;Max_cycle;Signal;HPM_P1;HPM_P2
2022/03/23 00:01:58;;;;;;;;;;;8.10;99.90;;;;;;5093041;28;19928;-60
2022/03/23 00:04:24;;;;;;;;;;;8.10;99.90;;;;;;5075278;28;19960;-60
2022/03/23 00:06:49;;;;;;;;;;;8.10;99.90;;;;;;5058065;28;19925;-60
2022/03/23 00:09:15;;;;;;;;;;;8.10;99.90;;;;;;5092562;28;19924;-60
2022/03/23 00:11:41;;;;;;;;;;;8.20;99.90;;;;;;5093985;28;19973;-60
2022/03/23 00:14:09;;;;;;;;;;;8.20;99.90;;;;;;5087069;28;20328;-60
2022/03/23 00:16:36;;;;;;;;;;;8.20;99.90;;;;;;5090995;28;19924;-60
2022/03/23 00:19:02;;;;;;;;;;;8.30;99.90;;;;;;5093997;28;20343;-60
2022/03/23 00:21:28;;;;;;;;;;;8.30;99.90;;;;;;5093879;28;19997;-60
2022/03/23 00:23:53;;;;;;;;;;;8.40;99.90;;;;;;5092494;28;20028;-61
2022/03/23 00:26:19;;;;;;;;;;;8.30;99.90;;;;;;5093456;28;19924;-61
2022/03/23 00:28:46;;;;;;;;;;;8.30;99.90;;;;;;5093204;28;19928;-60
2022/03/23 00:31:11;;;;;;;;;;;8.30;99.90;;;;;;5091093;28;20294;-60
2022/03/23 00:33:37;;;;;;;;;;;8.30;99.90;;;;;;5091925;28;19947;-60
2022/03/23 00:36:04;;;;;;;;;;;8.20;99.90;;;;;;5093486;28;19930;-60
2022/03/23 00:38:29;;;;;;;;;;;8.20;99.90;;;;;;5092519;28;19924;-60
2022/03/23 00:40:55;;;;;;;;;;;8.10;99.90;;;;;;5093598;28;20251;-60
2022/03/23 00:43:21;;;;;;;;;;;8.00;99.90;;;;;;5093236;28;20286;-60
2022/03/23 00:45:47;;;;;;;;;;;7.90;99.90;;;;;;5091079;28;19924;-60
2022/03/23 00:48:13;;;;;;;;;;;8.00;99.90;;;;;;5092970;28;19924;-60
2022/03/23 00:50:39;;;;;;;;;;;8.00;99.90;;;;;;5093549;28;19975;-60
2022/03/23 00:53:04;;;;;;;;;;;8.00;99.90;;;;;;5077299;28;19960;-60
2022/03/23 00:55:31;;;;;;;;;;;8.00;99.90;;;;;;5071754;28;19967;-60
2022/03/23 00:57:57;;;;;;;;;;;7.90;99.90;;;;;;5070818;28;20425;-60
2022/03/23 01:00:23;;;;;;;;;;;7.80;99.90;;;;;;5078227;28;19924;-60
2022/03/23 01:02:48;;;;;;;;;;;7.80;99.90;;;;;;5098445;28;19928;-60
2022/03/23 01:05:15;;;;;;;;;;;7.80;99.90;;;;;;5113041;28;19924;-60
2022/03/23 01:07:41;;;;;;;;;;;7.80;99.90;;;;;;5113801;28;19977;-60
2022/03/23 01:10:11;;;;;;;;;;;7.80;99.90;;;;;;5097166;28;19966;-60
2022/03/23 01:12:37;;;;;;;;;;;7.80;99.90;;;;;;5089966;28;19977;-60
2022/03/23 01:15:03;;;;;;;;;;;7.80;99.90;;;;;;5086502;28;20285;-60
2022/03/23 01:17:30;;;;;;;;;;;7.80;99.90;;;;;;5074164;28;19947;-60
2022/03/23 01:19:56;;;;;;;;;;;7.70;99.90;;;;;;5091437;28;20014;-60
2022/03/23 01:22:22;;;;;;;;;;;7.70;99.90;;;;;;5093475;28;20403;-60
2022/03/23 01:24:48;;;;;;;;;;;7.70;99.90;;;;;;5096470;28;19989;-60
2022/03/23 01:27:15;;;;;;;;;;;7.70;99.90;;;;;;5077744;28;20674;-60
2022/03/23 01:29:41;;;;;;;;;;;7.70;99.90;;;;;;5096836;28;19928;-60
2022/03/23 01:32:08;;;;;;;;;;;7.80;99.90;;;;;;5096673;28;19924;-60
2022/03/23 01:34:34;;;;;;;;;;;7.80;99.90;;;;;;5095060;28;20044;-60
2022/03/23 01:36:59;;;;;;;;;;;7.80;99.90;;;;;;5096396;28;19930;-60
2022/03/23 01:39:25;;;;;;;;;;;7.90;99.90;;;;;;5095321;28;19947;-60
2022/03/23 01:41:51;;;;;;;;;;;7.80;99.90;;;;;;5091391;28;19963;-60
2022/03/23 01:44:23;;;;;;;;;;;7.80;99.90;;;;;;5079787;28;19971;-60
2022/03/23 01:47:00;;;;;;;;;;;7.90;99.90;;;;;;5096481;28;19924;-60
2022/03/23 01:49:29;;;;;;;;;;;7.80;99.90;;;;;;5095460;28;19977;-60
2022/03/23 01:51:55;;;;;;;;;;;7.80;99.90;;;;;;5090646;28;20272;-60
2022/03/23 01:54:21;;;;;;;;;;;7.70;99.90;;;;;;5088712;28;19928;-60
2022/03/23 01:56:48;;;;;;;;;;;7.70;99.90;;;;;;5095493;28;19924;-60
2022/03/23 01:59:14;;;;;;;;;;;7.60;99.90;;;;;;5095163;28;20382;-60
2022/03/23 02:01:40;;;;;;;;;;;7.60;99.90;;;;;;5094917;28;19932;-60
2022/03/23 02:04:06;;;;;;;;;;;7.60;99.90;;;;;;5112679;28;20319;-60
2022/03/23 02:06:33;;;;;;;;;;;7.50;99.90;;;;;;5115576;28;20089;-60
2022/03/23 02:08:59;;;;;;;;;;;7.40;99.90;;;;;;5114067;28;20014;-60
2022/03/23 02:11:25;;;;;;;;;;;7.30;99.90;;;;;;5089218;28;19925;-60
2022/03/23 02:13:53;;;;;;;;;;;7.20;99.90;;;;;;5089468;28;19928;-60
2022/03/23 02:16:19;;;;;;;;;;;7.10;99.90;;;;;;5093567;28;19924;-59
2022/03/23 02:18:45;;;;;;;;;;;7.00;99.90;;;;;;5094661;28;19924;-60
2022/03/23 02:21:13;;;;;;;;;;;6.90;99.90;;;;;;5077555;28;19924;-60
2022/03/23 02:23:39;;;;;;;;;;;6.80;99.90;;;;;;5093644;28;19920;-60
2022/03/23 02:26:05;;;;;;;;;;;6.80;99.90;;;;;;5095992;28;19924;-60
2022/03/23 02:28:31;;;;;;;;;;;6.80;99.90;;;;;;5095510;28;19931;-60
2022/03/23 02:30:57;;;;;;;;;;;6.80;99.90;;;;;;5094899;28;19959;-60
2022/03/23 02:33:22;;;;;;;;;;;6.80;99.90;;;;;;5084748;28;20350;-60
2022/03/23 02:35:49;;;;;;;;;;;6.80;99.90;;;;;;5073936;28;19924;-60
2022/03/23 02:38:16;;;;;;;;;;;7.00;99.90;;;;;;5085130;28;19924;-60
2022/03/23 02:40:42;;;;;;;;;;;6.90;99.90;;;;;;5095749;28;19920;-60
2022/03/23 02:43:08;;;;;;;;;;;7.00;99.90;;;;;;5095581;28;19924;-60
2022/03/23 02:45:34;;;;;;;;;;;7.00;99.90;;;;;;5094382;28;20463;-60
2022/03/23 02:47:59;;;;;;;;;;;7.00;99.90;;;;;;5095122;28;19986;-60
2022/03/23 02:50:26;;;;;;;;;;;7.00;99.90;;;;;;5093166;28;19947;-60
2022/03/23 03:04:10;;;;;;;;;;;6.80;99.90;;;;;;5106153;28;19924;-60
2022/03/23 03:06:35;;;;;;;;;;;6.70;99.90;;;;;;5092643;28;19928;-59
2022/03/23 03:09:01;;;;;;;;;;;6.70;99.90;;;;;;5093550;28;19931;-60
2022/03/23 03:11:27;;;;;;;;;;;6.60;99.90;;;;;;5094344;28;20373;-60
2022/03/23 03:13:53;;;;;;;;;;;6.60;99.90;;;;;;5087401;28;20412;-60
2022/03/23 03:16:19;;;;;;;;;;;6.50;99.90;;;;;;5094817;28;20019;-60
2022/03/23 03:18:46;;;;;;;;;;;6.40;99.90;;;;;;5094168;28;19928;-60
2022/03/23 03:21:12;;;;;;;;;;;6.40;99.90;;;;;;5094738;28;20354;-60
2022/03/23 03:23:38;;;;;;;;;;;6.40;99.90;;;;;;5092872;28;19959;-60
2022/03/23 03:26:06;;;;;;;;;;;6.40;99.90;;;;;;5094094;28;19924;-60
2022/03/23 03:28:33;;;;;;;;;;;6.30;99.90;;;;;;5094711;28;20019;-60
2022/03/23 03:31:00;;;;;;;;;;;6.40;99.90;;;;;;5094376;28;19924;-61
2022/03/23 03:33:25;;;;;;;;;;;6.40;99.90;;;;;;5082669;28;19924;-60
2022/03/23 03:35:51;;;;;;;;;;;6.40;99.90;;;;;;5074113;28;19981;-60
2022/03/23 03:38:17;;;;;;;;;;;6.40;99.90;;;;;;5073859;28;20363;-60
2022/03/23 03:40:42;;;;;;;;;;;6.40;99.90;;;;;;5088191;28;20048;-60
2022/03/23 03:43:08;;;;;;;;;;;6.40;99.90;;;;;;5094633;28;19924;-60
2022/03/23 03:45:34;;;;;;;;;;;6.40;99.90;;;;;;5093732;28;19924;-60
2022/03/23 03:47:59;;;;;;;;;;;6.40;99.90;;;;;;5093167;28;19977;-60
2022/03/23 03:50:25;;;;;;;;;;;6.40;99.90;;;;;;5094339;28;19959;-60
2022/03/23 03:52:50;;;;;;;;;;;6.40;99.90;;;;;;5081594;28;20279;-60
2022/03/23 03:55:16;;;;;;;;;;;6.40;99.90;;;;;;5073351;28;19931;-60
2022/03/23 03:57:42;;;;;;;;;;;6.40;99.90;;;;;;5082837;28;19978;-59
2022/03/23 04:00:08;;;;;;;;;;;6.30;99.90;;;;;;5093779;28;19924;-60
2022/03/23 04:02:38;;;;;;;;;;;6.30;99.90;;;;;;5096933;28;20515;-60
2022/03/23 04:05:04;;;;;;;;;;;6.30;99.90;;;;;;5113080;28;19931;-60
2022/03/23 04:07:32;;;;;;;;;;;6.20;99.90;;;;;;5096066;28;19923;-60
2022/03/23 04:09:59;;;;;;;;;;;6.20;99.90;;;;;;5092775;28;19931;-59
2022/03/23 04:12:24;;;;;;;;;;;6.10;99.90;;;;;;5093800;28;20278;-60
2022/03/23 04:14:51;;;;;;;;;;;6.00;99.90;;;;;;5085578;28;19927;-59
2022/03/23 04:17:16;;;;;;;;;;;6.00;99.90;;;;;;5075242;28;19989;-59
2022/03/23 04:19:42;;;;;;;;;;;6.00;99.90;;;;;;5073654;28;19929;-59
2022/03/23 04:22:08;;;;;;;;;;;5.90;99.90;;;;;;5072130;28;19969;-59
2022/03/23 04:24:33;;;;;;;;;;;5.90;99.90;;;;;;5083753;28;19924;-59
2022/03/23 04:26:59;;;;;;;;;;;5.90;99.90;;;;;;5093773;28;19924;-60
2022/03/23 04:29:26;;;;;;;;;;;5.80;99.90;;;;;;5092369;28;19925;-60
2022/03/23 04:31:52;;;;;;;;;;;5.80;99.90;;;;;;5092322;28;20374;-59
2022/03/23 04:34:18;;;;;;;;;;;5.80;99.90;;;;;;5093205;28;19924;-59
2022/03/23 04:36:43;;;;;;;;;;;5.80;99.90;;;;;;5092362;28;19928;-59
2022/03/23 04:39:09;;;;;;;;;;;5.80;99.90;;;;;;5093533;28;19924;-59
2022/03/23 04:41:35;;;;;;;;;;;5.80;99.90;;;;;;5088766;28;19999;-59
2022/03/23 04:44:00;;;;;;;;;;;5.90;99.90;;;;;;5092449;28;20023;-59
2022/03/23 04:46:26;;;;;;;;;;;5.80;99.90;;;;;;5093462;28;19963;-59
2022/03/23 04:48:52;;;;;;;;;;;5.90;99.90;;;;;;5093193;28;19924;-59
2022/03/23 04:51:17;;;;;;;;;;;5.90;99.90;;;;;;5090529;28;19924;-59
2022/03/23 04:53:43;;;;;;;;;;;5.90;99.90;;;;;;5074129;28;19924;-59
2022/03/23 04:56:09;;;;;;;;;;;5.80;99.90;;;;;;5072974;28;19925;-59
2022/03/23 04:58:35;;;;;;;;;;;5.70;99.90;;;;;;5074553;28;19979;-59
2022/03/23 05:01:01;;;;;;;;;;;5.60;99.90;;;;;;5097424;28;19968;-59
2022/03/23 05:03:26;;;;;;;;;;;5.40;99.90;;;;;;5108159;28;19934;-59
2022/03/23 05:05:52;;;;;;;;;;;5.30;99.90;;;;;;5117102;28;19993;-59
2022/03/23 05:08:18;;;;;;;;;;;5.30;99.90;;;;;;5109518;28;20294;-59
2022/03/23 05:10:43;;;;;;;;;;;5.30;99.90;;;;;;5095740;28;19946;-59
2022/03/23 05:13:11;;;;;;;;;;;5.30;99.90;;;;;;5090630;28;20451;-59
2022/03/23 05:15:37;;;;;;;;;;;5.40;99.90;;;;;;5096220;28;19924;-59
2022/03/23 05:18:03;;;;;;;;;;;5.30;99.90;;;;;;5096271;28;20390;-59
2022/03/23 05:20:29;;;;;;;;;;;5.40;99.90;;;;;;5096568;28;20390;-59
2022/03/23 05:22:54;;;;;;;;;;;5.40;99.90;;;;;;5097243;28;19924;-59
2022/03/23 05:25:21;;;;;;;;;;;5.40;99.90;;;;;;5096010;28;20074;-59
2022/03/23 05:27:47;;;;;;;;;;;5.40;99.90;;;;;;5096623;28;19924;-59
2022/03/23 05:30:13;;;;;;;;;;;5.30;99.90;;;;;;5096895;28;19950;-59
2022/03/23 05:32:39;;;;;;;;;;;5.40;99.90;;;;;;5094650;28;19930;-59
2022/03/23 05:35:05;;;;;;;;;;;5.30;99.90;;;;;;5096314;28;19958;-59
2022/03/23 05:37:31;;;;;;;;;;;5.30;99.90;;;;;;5096819;28;19935;-59
2022/03/23 05:39:57;;;;;;;;;;;5.30;99.90;;;;;;5096086;28;19924;-59
2022/03/23 05:42:22;;;;;;;;;;;5.30;99.90;;;;;;5096497;28;19959;-59
2022/03/23 05:44:48;;;;;;;;;;;5.40;99.90;;;;;;5095277;28;19970;-59
2022/03/23 05:47:13;;;;;;;;;;;5.40;99.90;;;;;;5094374;28;19924;-59
2022/03/23 05:49:39;;;;;;;;;;;5.40;99.90;;;;;;5095883;28;19920;-59
2022/03/23 05:52:05;;;;;;;;;;;5.40;99.90;;;;;;5094666;28;20340;-59
2022/03/23 05:54:31;;;;;;;;;;;5.50;99.90;;;;;;5094649;28;20371;-59
2022/03/23 05:56:57;;;;;;;;;;;5.50;99.90;;;;;;5096136;28;19924;-59
2022/03/23 05:59:23;;;;;;;;;;;5.60;99.90;;;;;;5096567;28;19924;-59
2022/03/23 06:01:49;;;;;;;;;;;5.70;99.90;;;;;;5094177;28;19920;-59
2022/03/23 06:04:14;;;;;;;;;;;5.70;99.90;;;;;;5113105;28;20373;-59
2022/03/23 06:06:40;;;;;;;;;;;5.70;99.90;;;;;;5116830;28;19931;-59
2022/03/23 06:09:05;;;;;;;;;;;5.70;99.90;;;;;;5115156;28;19923;-59
2022/03/23 06:11:31;;;;;;;;;;;5.70;99.90;;;;;;5097030;28;19924;-59
2022/03/23 06:13:57;;;;;;;;;;;5.80;99.90;;;;;;5089342;28;20007;-59
2022/03/23 06:16:23;;;;;;;;;;;5.80;99.90;;;;;;5095275;28;19924;-59
2022/03/23 06:18:49;;;;;;;;;;;5.90;99.90;;;;;;5094457;28;20011;-59
2022/03/23 06:21:14;;;;;;;;;;;5.90;99.90;;;;;;5095457;28;19920;-59
2022/03/23 06:23:40;;;;;;;;;;;5.90;99.90;;;;;;5095640;28;20028;-59
2022/03/23 06:26:06;;;;;;;;;;;6.10;99.90;;;;;;5096019;28;19924;-59
2022/03/23 06:28:32;;;;;;;;;;;6.10;99.90;;;;;;5094533;28;19928;-59
2022/03/23 06:30:58;;;;;;;;;;;6.20;99.90;;;;;;5095998;28;19958;-59
2022/03/23 06:33:23;;;;;;;;;;;6.30;99.90;;;;;;5084762;28;20370;-59
2022/03/23 06:35:49;;;;;;;;;;;6.40;99.90;;;;;;5072917;28;19974;-59
2022/03/23 06:38:15;;;;;;;;;;;6.60;99.90;;;;;;5094342;28;19974;-59
2022/03/23 06:40:41;;;;;;;;;;;6.70;99.90;;;;;;5075635;28;19930;-59
2022/03/23 06:43:07;;;;;;;;;;;6.80;99.90;;;;;;5074315;28;19925;-59
2022/03/23 06:45:33;;;;;;;;;;;7.00;99.90;;;;;;5082485;28;19923;-59
2022/03/23 06:47:58;;;;;;;;;;;7.10;99.90;;;;;;5095055;28;19946;-60
2022/03/23 06:50:24;;;;;;;;;;;7.30;99.90;;;;;;5094515;28;19924;-59
2022/03/23 06:52:50;;;;;;;;;;;7.40;99.90;;;;;;5083563;28;19967;-59
2022/03/23 06:55:15;;;;;;;;;;;7.50;99.90;;;;;;5089262;28;19924;-59
2022/03/23 06:57:41;;;;;;;;;;;7.60;99.90;;;;;;5094123;28;20313;-59
2022/03/23 07:00:13;;;;;;;;;;;7.70;99.90;;;;;;5094099;28;19931;-59
2022/03/23 07:02:42;;;;;;;;;;;7.90;99.90;;;;;;5095291;28;19923;-60
2022/03/23 07:05:09;;;;;;;;;;;8.10;99.90;;;;;;5094256;28;20024;-60
2022/03/23 07:07:35;;;;;;;;;;;8.30;99.90;;;;;;5093585;28;19924;-59
2022/03/23 07:10:02;;;;;;;;;;;8.50;99.90;;;;;;5094575;28;19929;-60
2022/03/23 07:12:27;;;;;;;;;;;8.70;99.90;;;;;;5092011;28;19965;-59
2022/03/23 07:14:53;;;;;;;;;;;8.90;99.90;;;;;;5081533;28;19924;-60
2022/03/23 07:17:19;;;;;;;;;;;9.10;99.90;;;;;;5091728;28;19930;-60
2022/03/23 07:19:44;;;;;;;;;;;9.20;99.90;;;;;;5093821;28;19930;-60
2022/03/23 07:22:11;;;;;;;;;;;9.40;99.90;;;;;;5093780;28;20410;-60
2022/03/23 07:24:37;;;;;;;;;;;9.50;99.90;;;;;;5093858;28;20400;-60
2022/03/23 07:27:03;;;;;;;;;;;9.60;99.90;;;;;;5094487;28;19924;-60
2022/03/23 07:29:29;;;;;;;;;;;9.80;99.90;;;;;;5085750;28;20055;-60
2022/03/23 07:31:54;;;;;;;;;;;9.90;99.90;;;;;;5073419;28;20407;-60
2022/03/23 07:34:20;;;;;;;;;;;10.10;99.90;;;;;;5092800;28;19971;-60
2022/03/23 07:36:47;;;;;;;;;;;10.20;99.90;;;;;;5094298;28;20294;-60
2022/03/23 07:39:16;;;;;;;;;;;10.30;99.90;;;;;;5093316;28;20003;-60
2022/03/23 07:41:43;;;;;;;;;;;10.50;99.90;;;;;;5094481;28;19957;-60
2022/03/23 07:44:09;;;;;;;;;;;10.60;99.90;;;;;;5094072;28;19920;-60
2022/03/23 07:46:35;;;;;;;;;;;10.70;99.90;;;;;;5093727;28;19931;-60
2022/03/23 07:49:01;;;;;;;;;;;11.00;99.90;;;;;;5093408;28;19967;-60
2022/03/23 07:51:26;;;;;;;;;;;11.00;99.90;;;;;;5094341;28;19956;-60
2022/03/23 07:53:52;;;;;;;;;;;11.10;99.90;;;;;;5092037;28;19924;-60
2022/03/23 07:56:17;;;;;;;;;;;11.30;99.90;;;;;;5090876;28;19930;-60
2022/03/23 07:58:43;;;;;;;;;;;11.40;99.90;;;;;;5082547;28;19925;-60
2022/03/23 08:01:09;;;;;;;;;;;11.60;99.90;;;;;;5075928;28;20007;-60
2022/03/23 08:03:34;;;;;;;;;;;11.70;99.90;;;;;;5085402;28;19924;-60
2022/03/23 08:06:00;;;;;;;;;;;11.80;99.90;;;;;;5083153;28;19928;-60
2022/03/23 08:08:26;;;;;;;;;;;11.90;99.90;;;;;;5083143;28;20348;-60
2022/03/23 08:10:51;;;;;;;;;;;12.00;99.90;;;;;;5079674;28;20214;-60
2022/03/23 08:13:17;;;;;;;;;;;12.10;99.90;;;;;;5083233;28;19946;-60
2022/03/23 08:15:43;;;;;;;;;;;12.20;99.90;;;;;;5080793;28;19924;-60
2022/03/23 08:18:09;;;;;;;;;;;12.30;99.90;;;;;;5082512;28;19924;-60
2022/03/23 08:20:35;;;;;;;;;;;12.50;99.90;;;;;;5083857;28;20398;-60
2022/03/23 08:23:02;;;;;;;;;;;12.60;99.90;;;;;;5083868;28;19972;-60
2022/03/23 08:25:27;;;;;;;;;;;12.70;99.90;;;;;;5082374;28;19925;-60
2022/03/23 08:27:54;;;;;;;;;;;12.90;99.90;;;;;;5072309;28;19947;-60
2022/03/23 08:30:20;;;;;;;;;;;12.90;99.90;;;;;;5073372;28;19925;-60
2022/03/23 08:32:45;;;;;;;;;;;13.10;99.90;;;;;;5079799;28;20500;-60
2022/03/23 08:35:11;;;;;;;;;;;13.10;99.90;;;;;;5084483;28;20370;-60
2022/03/23 08:37:37;;;;;;;;;;;13.30;99.90;;;;;;5093253;28;20289;-60
2022/03/23 08:40:03;;;;;;;;;;;13.30;99.90;;;;;;5089297;28;19993;-60
2022/03/23 08:42:29;;;;;;;;;;;13.50;99.90;;;;;;5092249;28;20373;-60
2022/03/23 08:44:54;;;;;;;;;;;13.60;99.90;;;;;;5093489;28;19978;-60
2022/03/23 08:47:20;;;;;;;;;;;13.60;99.90;;;;;;5092651;28;20460;-60
2022/03/23 08:49:46;;;;;;;;;;;13.80;99.90;;;;;;5090202;28;19924;-60
2022/03/23 08:52:12;;;;;;;;;;;13.90;99.90;;;;;;5079559;28;19924;-60
2022/03/23 08:54:38;;;;;;;;;;;14.00;99.90;;;;;;5091337;28;20019;-60
2022/03/23 08:57:04;;;;;;;;;;;14.20;99.90;;;;;;5088675;28;19930;-60
2022/03/23 08:59:30;;;;;;;;;;;14.30;99.90;;;;;;5085430;28;20404;-60
2022/03/23 09:01:56;;;;;;;;;;;14.40;99.90;;;;;;5072830;28;19968;-61
2022/03/23 09:04:23;;;;;;;;;;;14.60;99.90;;;;;;5091411;28;19924;-60
2022/03/23 09:06:48;;;;;;;;;;;14.70;99.90;;;;;;5092366;28;19924;-61
2022/03/23 09:09:14;;;;;;;;;;;14.80;99.90;;;;;;5092447;28;19924;-60
2022/03/23 09:11:43;;;;;;;;;;;15.00;99.90;;;;;;5091915;28;19969;-60
2022/03/23 09:14:09;;;;;;;;;;;15.10;99.90;;;;;;5086352;28;20014;-60
2022/03/23 09:16:35;;;;;;;;;;;15.20;99.90;;;;;;5081335;28;20395;-60
2022/03/23 09:19:02;;;;;;;;;;;15.30;99.90;;;;;;5071925;28;19928;-60
2022/03/23 09:21:27;;;;;;;;;;;15.50;99.90;;;;;;5072755;28;19932;-60
2022/03/23 09:23:53;;;;;;;;;;;15.70;99.90;;;;;;5080632;28;19924;-61
2022/03/23 09:26:19;;;;;;;;;;;16.00;99.90;;;;;;5082690;28;19932;-60
2022/03/23 09:28:44;;;;;;;;;;;16.00;99.90;;;;;;5081427;28;19931;-60
2022/03/23 09:31:11;;;;;;;;;;;16.10;99.90;;;;;;5078130;28;19932;-61
2022/03/23 09:33:37;;;;;;;;;;;16.30;99.90;;;;;;5084001;28;20298;-61
2022/03/23 09:36:02;;;;;;;;;;;16.40;99.90;;;;;;5092820;28;19924;-61
2022/03/23 09:38:29;;;;;;;;;;;16.60;99.90;;;;;;5092131;28;19924;-60
2022/03/23 09:40:56;;;;;;;;;;;16.70;99.90;;;;;;5092462;28;19928;-61
2022/03/23 09:43:24;;;;;;;;;;;16.80;99.90;;;;;;5091892;28;20363;-60
2022/03/23 09:45:51;;;;;;;;;;;16.90;99.90;;;;;;5095895;28;19928;-61
2022/03/23 09:48:20;;;;;;;;;;;17.00;99.90;;;;;;5079461;28;19931;-61
2022/03/23 09:50:50;;;;;;;;;;;17.10;97.30;;;;;;5080807;28;19932;-61
2022/03/23 09:53:15;;;;;;;;;;;17.30;99.90;;;;;;5090857;28;20423;-61
2022/03/23 09:55:42;;;;;;;;;;;17.40;96.80;;;;;;5096221;28;20003;-61
2022/03/23 09:58:08;;;;;;;;;;;17.60;96.90;;;;;;5096387;28;19924;-61
2022/03/23 10:00:35;;;;;;;;;;;17.70;98.30;;;;;;5093302;28;19932;-61
2022/03/23 10:03:23;;;;;;;;;;;17.80;96.90;;;;;;5101506;28;19924;-61
2022/03/23 10:05:57;;;;;;;;;;;18.00;97.30;;;;;;5100147;28;20294;-61
2022/03/23 10:08:23;;;;;;;;;;;18.10;95.50;;;;;;5085001;28;19977;-61
2022/03/23 10:11:07;;;;;;;;;;;18.30;98.10;;;;;;5090421;28;20377;-61
2022/03/23 10:13:54;;;;;;;;;;;18.40;92.50;;;;;;5088603;28;19969;-61
2022/03/23 10:16:38;;;;;;;;;;;18.50;91.10;;;;;;5094238;28;19928;-61
2022/03/23 10:19:04;;;;;;;;;;;18.70;93.30;;;;;;5095756;28;19924;-61
2022/03/23 10:21:32;;;;;;;;;;;19.00;82.70;;;;;;5095417;28;19928;-61
2022/03/23 10:23:57;;;;;;;;;;;19.20;85.60;;;;;;5084474;28;19928;-61
2022/03/23 10:26:23;;;;;;;;;;;19.50;90.30;;;;;;5085592;28;19944;-61
2022/03/23 10:28:49;;;;;;;;;;;19.70;86.00;;;;;;5088341;28;19924;-61
2022/03/23 10:31:17;;;;;;;;;;;19.90;80.00;;;;;;5095623;28;19923;-61
2022/03/23 10:33:43;;;;;;;;;;;20.30;74.70;;;;;;5087169;28;20019;-61
2022/03/23 10:36:09;;;;;;;;;;;20.60;74.10;;;;;;5094253;28;19944;-61
2022/03/23 10:38:38;;;;;;;;;;;20.90;70.20;;;;;;5093921;28;20399;-61
2022/03/23 10:41:11;;;;;;;;;;;21.20;71.40;;;;;;5075071;28;19928;-61
2022/03/23 10:43:38;;;;;;;;;;;21.60;67.60;;;;;;5074437;28;19967;-61
2022/03/23 10:46:10;;;;;;;;;;;21.70;64.80;;;;;;5095136;28;20343;-61
2022/03/23 10:48:36;;;;;;;;;;;21.80;58.60;;;;;;5094371;28;19928;-61
2022/03/23 10:51:02;;;;;;;;;;;22.00;62.60;;;;;;5093991;28;19925;-61
2022/03/23 10:53:37;;;;;;;;;;;22.00;62.70;;;;;;5093306;28;19930;-61
2022/03/23 10:56:03;;;;;;;;;;;21.90;62.90;;;;;;5083589;28;19931;-61
2022/03/23 10:58:29;;;;;;;;;;;21.80;62.70;;;;;;5083875;28;19977;-61
2022/03/23 11:00:56;;;;;;;;;;;21.90;62.30;;;;;;5094206;28;19924;-61
2022/03/23 11:03:34;;;;;;;;;;;22.20;60.30;;;;;;5103770;28;19928;-61
2022/03/23 11:06:00;;;;;;;;;;;22.40;57.70;;;;;;5089268;28;19924;-61
2022/03/23 11:08:26;;;;;;;;;;;22.30;55.40;;;;;;5083356;28;19978;-61
2022/03/23 11:16:27;;;;;;;;;;;22.10;54.10;;;;;;5084765;28;20149;-61
2022/03/23 11:19:12;;;;;;;;;;;22.20;57.80;;;;;;5083455;28;21305;-61
2022/03/23 11:21:57;;;;;;;;;;;22.30;59.70;;;;;;5081448;28;20012;-61
2022/03/23 11:24:23;;;;;;;;;;;22.40;53.00;;;;;;5092342;28;20390;-61
2022/03/23 11:26:50;;;;;;;;;;;22.50;55.50;;;;;;5094589;28;19924;-61
2022/03/23 11:29:17;;;;;;;;;;;22.90;52.60;;;;;;5094353;28;19935;-61
2022/03/23 11:31:44;;;;;;;;;;;23.50;56.10;;;;;;5078491;28;20294;-61
2022/03/23 11:34:11;;;;;;;;;;;23.90;52.90;;;;;;5094437;28;19931;-61
2022/03/23 11:36:37;;;;;;;;;;;24.20;52.10;;;;;;5083888;28;20016;-61
2022/03/23 11:39:04;;;;;;;;;;;24.40;51.40;;;;;;5091394;28;20007;-61
2022/03/23 11:41:30;;;;;;;;;;;24.50;50.10;;;;;;5094091;28;19985;-61
2022/03/23 11:43:56;;;;;;;;;;;24.40;48.10;;;;;;5094286;28;19930;-61
2022/03/23 11:46:22;;;;;;;;;;;24.20;50.00;;;;;;5090893;28;20394;-62
2022/03/23 11:49:01;;;;;;;;;;;24.00;50.80;;;;;;5092640;28;20333;-62
2022/03/23 11:51:40;;;;;;;;;;;23.60;48.00;;;;;;5094043;28;19947;-61
2022/03/23 11:54:09;;;;;;;;;;;23.30;46.60;;;;;;5092625;28;20291;-62
2022/03/23 11:56:42;;;;;;;;;;;23.20;51.00;;;;;;5088813;28;19935;-62
2022/03/23 11:59:19;;;;;;;;;;;23.30;49.00;;;;;;5081784;28;19925;-62
2022/03/23 12:01:45;;;;;;;;;;;23.60;47.10;;;;;;5082556;28;19924;-62
2022/03/23 12:04:12;;;;;;;;;;;24.10;50.10;;;;;;5089455;28;19951;-62
2022/03/23 12:06:39;;;;;;;;;;;24.40;47.50;;;;;;5082203;28;20344;-61
2022/03/23 12:09:05;;;;;;;;;;;24.60;47.30;;;;;;5087269;28;20443;-62
2022/03/23 12:11:38;;;;;;;;;;;24.60;47.90;;;;;;5093686;28;19928;-62
2022/03/23 12:14:06;;;;;;;;;;;24.80;48.30;;;;;;5089293;28;19963;-62
2022/03/23 12:16:48;;;;;;;;;;;25.00;46.00;;;;;;5092001;28;20018;-62
2022/03/23 12:19:17;;;;;;;;;;;24.80;45.80;;;;;;5093969;28;19939;-62
2022/03/23 12:21:55;;;;;;;;;;;24.60;44.70;;;;;;5081100;28;19924;-62
2022/03/23 12:24:28;;;;;;;;;;;24.20;43.10;;;;;;5092449;28;19935;-62
2022/03/23 12:26:54;;;;;;;;;;;23.60;45.40;;;;;;5093609;28;19928;-62
2022/03/23 12:29:26;;;;;;;;;;;23.40;46.70;;;;;;5092627;28;19931;-61
2022/03/23 12:32:02;;;;;;;;;;;23.50;46.80;;;;;;5091900;28;20357;-62
2022/03/23 12:34:27;;;;;;;;;;;23.30;45.60;;;;;;5092820;28;19924;-62
2022/03/23 12:36:59;;;;;;;;;;;23.20;44.10;;;;;;5093156;28;19931;-62
2022/03/23 12:39:25;;;;;;;;;;;23.00;44.70;;;;;;5090245;28;19932;-62
2022/03/23 12:41:51;;;;;;;;;;;22.80;45.20;;;;;;5080053;28;19928;-62
2022/03/23 12:44:17;;;;;;;;;;;22.90;44.10;;;;;;5081110;28;20298;-62
2022/03/23 12:46:44;;;;;;;;;;;23.40;45.00;;;;;;5081426;28;20285;-62
2022/03/23 12:57:54;;;;;;;;;;;24.70;42.70;;;;;;5091771;28;19924;-62
2022/03/23 13:00:25;;;;;;;;;;;25.50;41.00;;;;;;5082770;28;19928;-62
2022/03/23 13:03:06;;;;;;;;;;;26.30;39.80;;;;;;5096366;28;19924;-62
2022/03/23 13:05:32;;;;;;;;;;;27.10;39.10;;;;;;5110117;28;19939;-62
2022/03/23 13:07:58;;;;;;;;;;;27.20;39.80;;;;;;5091112;28;20041;-62
2022/03/23 13:10:25;;;;;;;;;;;27.60;38.50;;;;;;5090238;28;20007;-62
2022/03/23 13:12:51;;;;;;;;;;;28.10;39.40;;;;;;5089940;28;19939;-62
2022/03/23 13:15:18;;;;;;;;;;;28.30;38.20;;;;;;5088397;28;19924;-62
2022/03/23 13:17:45;;;;;;;;;;;28.10;38.10;;;;;;5091536;28;19930;-62
2022/03/23 13:20:13;;;;;;;;;;;27.70;39.00;;;;;;5096217;28;20032;-62
2022/03/23 13:22:39;;;;;;;;;;;27.30;39.50;;;;;;5078720;28;20348;-62
2022/03/23 13:25:06;;;;;;;;;;;27.00;38.00;;;;;;5094572;28;19998;-62
2022/03/23 13:27:33;;;;;;;;;;;27.10;38.10;;;;;;5094865;28;19924;-62
2022/03/23 13:29:59;;;;;;;;;;;27.50;38.20;;;;;;5096117;28;20443;-62
2022/03/23 13:32:32;;;;;;;;;;;27.60;39.10;;;;;;5095622;28;20580;-62
2022/03/23 13:34:58;;;;;;;;;;;27.50;37.70;;;;;;5096461;28;19924;-62
2022/03/23 13:37:23;;;;;;;;;;;27.50;33.80;;;;;;5095583;28;19977;-62
2022/03/23 13:39:49;;;;;;;;;;;27.50;35.00;;;;;;5096078;28;19928;-62
2022/03/23 13:45:05;;;;;;;;;;;27.60;36.30;;;;;;5089109;28;19931;-62
2022/03/23 13:47:31;;;;;;;;;;;26.70;36.50;;;;;;5087752;28;19925;-62
2022/03/23 13:49:58;;;;;;;;;;;26.00;38.20;;;;;;5084840;28;19930;-61
2022/03/23 13:52:26;;;;;;;;;;;25.40;39.00;;;;;;5086277;28;20367;-63
2022/03/23 13:54:55;;;;;;;;;;;25.10;38.20;;;;;;5078259;28;20011;-62
2022/03/23 13:57:21;;;;;;;;;;;25.20;40.40;;;;;;5076193;28;19928;-62
2022/03/23 13:59:47;;;;;;;;;;;25.80;40.10;;;;;;5087333;28;20427;-61
2022/03/23 14:02:16;;;;;;;;;;;26.00;39.20;;;;;;5096887;28;19931;-61
2022/03/23 14:04:42;;;;;;;;;;;25.70;39.40;;;;;;5115693;28;19977;-61
2022/03/23 14:07:08;;;;;;;;;;;25.10;39.40;;;;;;5113828;28;19924;-61
2022/03/23 14:09:37;;;;;;;;;;;24.70;39.00;;;;;;5095778;28;20007;-61
2022/03/23 14:12:07;;;;;;;;;;;24.40;39.60;;;;;;5096166;28;20054;-62
2022/03/23 14:14:35;;;;;;;;;;;24.10;37.90;;;;;;5086889;28;19935;-61
2022/03/23 14:17:01;;;;;;;;;;;24.20;50.20;;;;;;5095712;28;19924;-62
2022/03/23 14:19:27;;;;;;;;;;;24.40;47.60;;;;;;5095071;28;20306;-62
2022/03/23 14:21:56;;;;;;;;;;;24.20;44.60;;;;;;5094777;28;19926;-62
2022/03/23 14:24:24;;;;;;;;;;;23.90;41.90;;;;;;5096042;28;19928;-61
2022/03/23 14:26:49;;;;;;;;;;;23.70;44.30;;;;;;5094984;28;19924;-62
2022/03/23 14:29:21;;;;;;;;;;;23.80;42.30;;;;;;5094137;28;19920;-62
2022/03/23 14:31:48;;;;;;;;;;;23.70;42.90;;;;;;5095840;28;19924;-62
2022/03/23 14:34:14;;;;;;;;;;;23.80;43.60;;;;;;5093476;28;19920;-62
2022/03/23 14:36:40;;;;;;;;;;;23.80;40.30;;;;;;5095035;28;19931;-62
2022/03/23 14:39:19;;;;;;;;;;;24.10;41.20;;;;;;5095631;28;20382;-63
2022/03/23 14:41:56;;;;;;;;;;;24.50;41.70;;;;;;5093420;28;19925;-62
2022/03/23 14:44:34;;;;;;;;;;;24.90;40.90;;;;;;5093806;28;19935;-63
2022/03/23 14:47:01;;;;;;;;;;;25.90;41.10;;;;;;5095265;28;20374;-63
2022/03/23 14:49:37;;;;;;;;;;;27.40;52.40;;;;;;5093389;28;19977;-64
2022/03/23 14:52:04;;;;;;;;;;;29.50;39.40;;;;;;5093376;28;19924;-64